sensor_id;sensor_type;location;lat;lon;timestamp;P1;durP1;ratioP1;P2;durP2;ratioP2
36923;SDS011;22841;50.252;18.688;2022-07-01T00:01:40;22.88;;;17.70;;
36923;SDS011;22841;50.252;18.688;2022-07-01T00:04:07;26.33;;;19.75;;
36923;SDS011;22841;50.252;18.688;2022-07-01T00:06:33;29.13;;;19.13;;
36923;SDS011;22841;50.252;18.688;2022-07-01T00:09:00;29.23;;;18.35;;
36923;SDS011;22841;50.252;18.688;2022-07-01T00:11:26;33.13;;;19.58;;
36923;SDS011;22841;50.252;18.688;2022-07-01T00:13:52;28.25;;;17.55;;
36923;SDS011;22841;50.252;18.688;2022-07-01T00:16:18;28.55;;;19.50;;
36923;SDS011;22841;50.252;18.688;2022-07-01T00:18:44;37.72;;;18.67;;
36923;SDS011;22841;50.252;18.688;2022-07-01T00:21:10;26.92;;;19.15;;
36923;SDS011;22841;50.252;18.688;2022-07-01T00:23:37;40.47;;;19.73;;
36923;SDS011;22841;50.252;18.688;2022-07-01T00:26:03;35.42;;;19.85;;
36923;SDS011;22841;50.252;18.688;2022-07-01T00:28:29;29.95;;;20.55;;
36923;SDS011;22841;50.252;18.688;2022-07-01T00:30:55;29.38;;;19.88;;
36923;SDS011;22841;50.252;18.688;2022-07-01T00:33:21;31.45;;;19.42;;
36923;SDS011;22841;50.252;18.688;2022-07-01T00:35:47;36.60;;;19.52;;
36923;SDS011;22841;50.252;18.688;2022-07-01T00:38:14;34.50;;;20.45;;
36923;SDS011;22841;50.252;18.688;2022-07-01T00:40:40;34.33;;;20.38;;
36923;SDS011;22841;50.252;18.688;2022-07-01T00:43:06;37.20;;;21.13;;
36923;SDS011;22841;50.252;18.688;2022-07-01T00:45:32;34.03;;;19.50;;
36923;SDS011;22841;50.252;18.688;2022-07-01T00:47:58;26.75;;;19.63;;
36923;SDS011;22841;50.252;18.688;2022-07-01T00:50:24;34.63;;;22.35;;
36923;SDS011;22841;50.252;18.688;2022-07-01T00:52:50;28.08;;;19.90;;
36923;SDS011;22841;50.252;18.688;2022-07-01T00:55:16;33.47;;;22.05;;
36923;SDS011;22841;50.252;18.688;2022-07-01T00:57:43;30.17;;;20.52;;
36923;SDS011;22841;50.252;18.688;2022-07-01T01:00:11;36.97;;;20.80;;
36923;SDS011;22841;50.252;18.688;2022-07-01T01:02:44;30.27;;;22.92;;
36923;SDS011;22841;50.252;18.688;2022-07-01T01:05:10;37.17;;;21.02;;
36923;SDS011;22841;50.252;18.688;2022-07-01T01:07:37;32.53;;;20.30;;
36923;SDS011;22841;50.252;18.688;2022-07-01T01:10:04;26.52;;;20.23;;
36923;SDS011;22841;50.252;18.688;2022-07-01T01:12:31;34.15;;;22.63;;
36923;SDS011;22841;50.252;18.688;2022-07-01T01:14:57;48.33;;;22.38;;
36923;SDS011;22841;50.252;18.688;2022-07-01T01:17:23;33.80;;;22.27;;
36923;SDS011;22841;50.252;18.688;2022-07-01T01:19:50;44.42;;;23.38;;
36923;SDS011;22841;50.252;18.688;2022-07-01T01:22:18;45.00;;;22.77;;
36923;SDS011;22841;50.252;18.688;2022-07-01T01:24:45;53.63;;;24.80;;
36923;SDS011;22841;50.252;18.688;2022-07-01T01:27:15;39.58;;;23.20;;
36923;SDS011;22841;50.252;18.688;2022-07-01T01:29:42;34.53;;;23.27;;
36923;SDS011;22841;50.252;18.688;2022-07-01T01:32:09;38.80;;;25.75;;
36923;SDS011;22841;50.252;18.688;2022-07-01T01:34:36;30.00;;;23.00;;
36923;SDS011;22841;50.252;18.688;2022-07-01T01:37:04;34.85;;;24.60;;
36923;SDS011;22841;50.252;18.688;2022-07-01T01:39:32;43.50;;;23.77;;
36923;SDS011;22841;50.252;18.688;2022-07-01T01:41:58;39.30;;;24.60;;
36923;SDS011;22841;50.252;18.688;2022-07-01T01:44:25;32.97;;;22.55;;
36923;SDS011;22841;50.252;18.688;2022-07-01T01:46:51;45.08;;;23.85;;
36923;SDS011;22841;50.252;18.688;2022-07-01T01:49:17;47.08;;;22.70;;
36923;SDS011;22841;50.252;18.688;2022-07-01T01:51:43;31.80;;;23.17;;
36923;SDS011;22841;50.252;18.688;2022-07-01T01:54:09;39.42;;;23.58;;
36923;SDS011;22841;50.252;18.688;2022-07-01T01:56:36;48.00;;;23.65;;
36923;SDS011;22841;50.252;18.688;2022-07-01T01:59:02;35.10;;;24.17;;
36923;SDS011;22841;50.252;18.688;2022-07-01T02:01:30;35.35;;;22.42;;
36923;SDS011;22841;50.252;18.688;2022-07-01T02:03:56;51.72;;;23.23;;
36923;SDS011;22841;50.252;18.688;2022-07-01T02:06:24;32.70;;;24.42;;
36923;SDS011;22841;50.252;18.688;2022-07-01T02:08:50;38.22;;;22.38;;
36923;SDS011;22841;50.252;18.688;2022-07-01T02:11:16;26.85;;;19.60;;
36923;SDS011;22841;50.252;18.688;2022-07-01T02:13:42;44.10;;;22.58;;
36923;SDS011;22841;50.252;18.688;2022-07-01T02:16:10;31.50;;;22.13;;
36923;SDS011;22841;50.252;18.688;2022-07-01T02:21:06;33.85;;;22.80;;
36923;SDS011;22841;50.252;18.688;2022-07-01T02:23:32;36.17;;;22.23;;
36923;SDS011;22841;50.252;18.688;2022-07-01T02:25:58;40.65;;;22.45;;
36923;SDS011;22841;50.252;18.688;2022-07-01T02:28:25;40.38;;;23.25;;
36923;SDS011;22841;50.252;18.688;2022-07-01T02:30:51;38.88;;;21.25;;
36923;SDS011;22841;50.252;18.688;2022-07-01T02:33:18;29.95;;;22.88;;
36923;SDS011;22841;50.252;18.688;2022-07-01T02:35:44;36.55;;;21.60;;
36923;SDS011;22841;50.252;18.688;2022-07-01T02:38:10;45.05;;;20.65;;
36923;SDS011;22841;50.252;18.688;2022-07-01T02:40:36;42.88;;;23.48;;
36923;SDS011;22841;50.252;18.688;2022-07-01T02:43:06;40.50;;;22.80;;
36923;SDS011;22841;50.252;18.688;2022-07-01T02:45:32;41.90;;;22.23;;
36923;SDS011;22841;50.252;18.688;2022-07-01T02:47:58;42.40;;;23.23;;
36923;SDS011;22841;50.252;18.688;2022-07-01T02:50:27;31.25;;;21.50;;
36923;SDS011;22841;50.252;18.688;2022-07-01T02:52:53;38.20;;;22.52;;
36923;SDS011;22841;50.252;18.688;2022-07-01T02:55:19;38.78;;;23.45;;
36923;SDS011;22841;50.252;18.688;2022-07-01T02:57:46;32.90;;;22.35;;
36923;SDS011;22841;50.252;18.688;2022-07-01T03:00:15;41.03;;;22.85;;
36923;SDS011;22841;50.252;18.688;2022-07-01T03:02:41;47.38;;;25.02;;
36923;SDS011;22841;50.252;18.688;2022-07-01T03:05:07;42.90;;;24.05;;
36923;SDS011;22841;50.252;18.688;2022-07-01T03:07:34;35.55;;;21.92;;
36923;SDS011;22841;50.252;18.688;2022-07-01T03:10:01;34.78;;;21.73;;
36923;SDS011;22841;50.252;18.688;2022-07-01T03:12:28;40.85;;;24.27;;
36923;SDS011;22841;50.252;18.688;2022-07-01T03:14:54;37.38;;;22.45;;
36923;SDS011;22841;50.252;18.688;2022-07-01T03:17:25;28.08;;;21.52;;
36923;SDS011;22841;50.252;18.688;2022-07-01T03:19:53;32.30;;;23.33;;
36923;SDS011;22841;50.252;18.688;2022-07-01T03:22:22;34.50;;;23.33;;
36923;SDS011;22841;50.252;18.688;2022-07-01T03:24:50;39.35;;;21.65;;
36923;SDS011;22841;50.252;18.688;2022-07-01T03:27:17;28.92;;;23.10;;
36923;SDS011;22841;50.252;18.688;2022-07-01T03:29:44;29.02;;;22.38;;
36923;SDS011;22841;50.252;18.688;2022-07-01T03:32:10;33.92;;;21.70;;
36923;SDS011;22841;50.252;18.688;2022-07-01T03:34:37;70.97;;;23.65;;
36923;SDS011;22841;50.252;18.688;2022-07-01T03:37:07;30.45;;;21.92;;
36923;SDS011;22841;50.252;18.688;2022-07-01T03:39:34;33.67;;;23.70;;
36923;SDS011;22841;50.252;18.688;2022-07-01T03:42:02;33.65;;;21.85;;
36923;SDS011;22841;50.252;18.688;2022-07-01T03:44:29;38.95;;;23.15;;
36923;SDS011;22841;50.252;18.688;2022-07-01T03:46:56;49.88;;;22.75;;
36923;SDS011;22841;50.252;18.688;2022-07-01T03:49:22;39.35;;;22.52;;
36923;SDS011;22841;50.252;18.688;2022-07-01T03:51:49;27.98;;;22.30;;
36923;SDS011;22841;50.252;18.688;2022-07-01T03:54:15;29.08;;;23.00;;
36923;SDS011;22841;50.252;18.688;2022-07-01T03:56:57;33.05;;;22.92;;
36923;SDS011;22841;50.252;18.688;2022-07-01T03:59:24;41.45;;;22.98;;
36923;SDS011;22841;50.252;18.688;2022-07-01T04:01:54;36.97;;;23.80;;
36923;SDS011;22841;50.252;18.688;2022-07-01T04:04:21;41.30;;;25.73;;
36923;SDS011;22841;50.252;18.688;2022-07-01T04:06:48;70.95;;;25.00;;
36923;SDS011;22841;50.252;18.688;2022-07-01T04:09:15;46.78;;;23.92;;
36923;SDS011;22841;50.252;18.688;2022-07-01T04:11:43;43.10;;;21.65;;
36923;SDS011;22841;50.252;18.688;2022-07-01T04:14:10;60.05;;;26.50;;
36923;SDS011;22841;50.252;18.688;2022-07-01T04:16:37;39.22;;;24.17;;
36923;SDS011;22841;50.252;18.688;2022-07-01T04:19:04;37.88;;;23.23;;
36923;SDS011;22841;50.252;18.688;2022-07-01T04:21:31;38.10;;;24.83;;
36923;SDS011;22841;50.252;18.688;2022-07-01T04:24:15;33.65;;;24.50;;
36923;SDS011;22841;50.252;18.688;2022-07-01T04:26:42;39.15;;;29.05;;
36923;SDS011;22841;50.252;18.688;2022-07-01T04:29:08;42.83;;;29.77;;
36923;SDS011;22841;50.252;18.688;2022-07-01T04:31:36;40.08;;;29.17;;
36923;SDS011;22841;50.252;18.688;2022-07-01T04:34:03;37.75;;;29.75;;
36923;SDS011;22841;50.252;18.688;2022-07-01T04:36:30;40.00;;;27.23;;
36923;SDS011;22841;50.252;18.688;2022-07-01T04:38:56;41.00;;;28.98;;
36923;SDS011;22841;50.252;18.688;2022-07-01T04:41:23;43.92;;;28.05;;
36923;SDS011;22841;50.252;18.688;2022-07-01T04:44:08;53.15;;;27.52;;
36923;SDS011;22841;50.252;18.688;2022-07-01T04:46:34;42.00;;;27.58;;
36923;SDS011;22841;50.252;18.688;2022-07-01T04:49:00;39.63;;;26.63;;
36923;SDS011;22841;50.252;18.688;2022-07-01T04:51:27;36.22;;;25.05;;
36923;SDS011;22841;50.252;18.688;2022-07-01T04:53:54;37.70;;;24.77;;
36923;SDS011;22841;50.252;18.688;2022-07-01T04:56:20;35.25;;;24.45;;
36923;SDS011;22841;50.252;18.688;2022-07-01T04:58:47;38.28;;;25.75;;
36923;SDS011;22841;50.252;18.688;2022-07-01T05:01:13;38.13;;;24.52;;
36923;SDS011;22841;50.252;18.688;2022-07-01T05:03:39;42.20;;;24.05;;
36923;SDS011;22841;50.252;18.688;2022-07-01T05:06:05;42.53;;;26.27;;
36923;SDS011;22841;50.252;18.688;2022-07-01T05:08:31;37.05;;;24.20;;
36923;SDS011;22841;50.252;18.688;2022-07-01T05:10:58;41.40;;;23.50;;
36923;SDS011;22841;50.252;18.688;2022-07-01T05:13:24;50.88;;;23.52;;
36923;SDS011;22841;50.252;18.688;2022-07-01T05:15:50;31.77;;;23.25;;
36923;SDS011;22841;50.252;18.688;2022-07-01T05:18:16;34.78;;;23.75;;
36923;SDS011;22841;50.252;18.688;2022-07-01T05:21:00;36.42;;;23.23;;
36923;SDS011;22841;50.252;18.688;2022-07-01T05:23:45;34.90;;;21.40;;
36923;SDS011;22841;50.252;18.688;2022-07-01T05:26:11;42.17;;;21.67;;
36923;SDS011;22841;50.252;18.688;2022-07-01T05:28:43;32.88;;;21.23;;
36923;SDS011;22841;50.252;18.688;2022-07-01T05:31:10;42.05;;;21.25;;
36923;SDS011;22841;50.252;18.688;2022-07-01T05:33:36;26.83;;;19.70;;
36923;SDS011;22841;50.252;18.688;2022-07-01T05:36:02;28.75;;;20.05;;
36923;SDS011;22841;50.252;18.688;2022-07-01T05:38:29;39.13;;;20.48;;
36923;SDS011;22841;50.252;18.688;2022-07-01T05:40:55;35.03;;;19.65;;
36923;SDS011;22841;50.252;18.688;2022-07-01T05:43:21;29.15;;;19.40;;
36923;SDS011;22841;50.252;18.688;2022-07-01T05:45:47;29.15;;;20.02;;
36923;SDS011;22841;50.252;18.688;2022-07-01T05:48:13;24.95;;;19.73;;
36923;SDS011;22841;50.252;18.688;2022-07-01T05:50:40;24.92;;;19.90;;
36923;SDS011;22841;50.252;18.688;2022-07-01T05:53:06;30.23;;;21.33;;
36923;SDS011;22841;50.252;18.688;2022-07-01T05:55:32;37.55;;;20.70;;
36923;SDS011;22841;50.252;18.688;2022-07-01T05:57:59;43.28;;;20.98;;
36923;SDS011;22841;50.252;18.688;2022-07-01T06:00:29;23.92;;;17.98;;
36923;SDS011;22841;50.252;18.688;2022-07-01T06:02:55;28.00;;;18.20;;
36923;SDS011;22841;50.252;18.688;2022-07-01T06:05:21;29.33;;;18.90;;
36923;SDS011;22841;50.252;18.688;2022-07-01T06:07:48;29.02;;;17.65;;
36923;SDS011;22841;50.252;18.688;2022-07-01T06:10:14;24.40;;;16.90;;
36923;SDS011;22841;50.252;18.688;2022-07-01T06:12:41;27.63;;;17.45;;
36923;SDS011;22841;50.252;18.688;2022-07-01T06:15:07;28.02;;;17.27;;
36923;SDS011;22841;50.252;18.688;2022-07-01T06:17:37;27.40;;;17.35;;
36923;SDS011;22841;50.252;18.688;2022-07-01T06:20:04;24.73;;;16.52;;
36923;SDS011;22841;50.252;18.688;2022-07-01T06:22:31;29.38;;;17.13;;
36923;SDS011;22841;50.252;18.688;2022-07-01T06:24:58;31.23;;;16.20;;
36923;SDS011;22841;50.252;18.688;2022-07-01T06:27:25;28.25;;;16.95;;
36923;SDS011;22841;50.252;18.688;2022-07-01T06:29:53;23.42;;;15.63;;
36923;SDS011;22841;50.252;18.688;2022-07-01T06:32:20;33.03;;;15.93;;
36923;SDS011;22841;50.252;18.688;2022-07-01T06:34:46;21.70;;;16.25;;
36923;SDS011;22841;50.252;18.688;2022-07-01T06:37:13;26.80;;;15.73;;
36923;SDS011;22841;50.252;18.688;2022-07-01T06:39:39;22.90;;;14.35;;
36923;SDS011;22841;50.252;18.688;2022-07-01T06:42:05;29.38;;;16.55;;
36923;SDS011;22841;50.252;18.688;2022-07-01T06:44:32;27.80;;;16.80;;
36923;SDS011;22841;50.252;18.688;2022-07-01T06:46:58;25.08;;;15.90;;
36923;SDS011;22841;50.252;18.688;2022-07-01T06:49:24;21.38;;;13.30;;
36923;SDS011;22841;50.252;18.688;2022-07-01T06:51:50;29.88;;;14.27;;
36923;SDS011;22841;50.252;18.688;2022-07-01T06:54:17;23.27;;;12.45;;
36923;SDS011;22841;50.252;18.688;2022-07-01T06:56:43;54.70;;;14.02;;
36923;SDS011;22841;50.252;18.688;2022-07-01T06:59:09;21.70;;;12.00;;
36923;SDS011;22841;50.252;18.688;2022-07-01T07:01:35;16.05;;;11.68;;
36923;SDS011;22841;50.252;18.688;2022-07-01T07:04:01;17.65;;;12.05;;
36923;SDS011;22841;50.252;18.688;2022-07-01T07:06:27;16.52;;;11.98;;
36923;SDS011;22841;50.252;18.688;2022-07-01T07:08:54;20.60;;;12.27;;
36923;SDS011;22841;50.252;18.688;2022-07-01T07:11:20;31.20;;;12.52;;
36923;SDS011;22841;50.252;18.688;2022-07-01T07:13:46;15.60;;;10.55;;
36923;SDS011;22841;50.252;18.688;2022-07-01T07:16:12;20.05;;;10.73;;
36923;SDS011;22841;50.252;18.688;2022-07-01T07:18:40;48.95;;;12.98;;
36923;SDS011;22841;50.252;18.688;2022-07-01T07:21:06;22.90;;;11.07;;
36923;SDS011;22841;50.252;18.688;2022-07-01T07:23:32;25.77;;;11.93;;
36923;SDS011;22841;50.252;18.688;2022-07-01T07:25:58;18.52;;;11.65;;
36923;SDS011;22841;50.252;18.688;2022-07-01T07:28:24;24.83;;;11.70;;
36923;SDS011;22841;50.252;18.688;2022-07-01T07:30:50;20.92;;;10.35;;
36923;SDS011;22841;50.252;18.688;2022-07-01T07:33:16;13.82;;;10.55;;
36923;SDS011;22841;50.252;18.688;2022-07-01T07:35:42;19.52;;;11.30;;
36923;SDS011;22841;50.252;18.688;2022-07-01T07:38:08;15.93;;;10.48;;
36923;SDS011;22841;50.252;18.688;2022-07-01T07:40:35;17.75;;;10.30;;
36923;SDS011;22841;50.252;18.688;2022-07-01T07:43:01;25.30;;;10.70;;
36923;SDS011;22841;50.252;18.688;2022-07-01T07:45:29;19.63;;;10.43;;
36923;SDS011;22841;50.252;18.688;2022-07-01T07:47:55;20.90;;;11.13;;
36923;SDS011;22841;50.252;18.688;2022-07-01T07:50:21;24.88;;;10.10;;
36923;SDS011;22841;50.252;18.688;2022-07-01T07:52:48;17.35;;;9.48;;
36923;SDS011;22841;50.252;18.688;2022-07-01T07:55:14;16.88;;;9.98;;
36923;SDS011;22841;50.252;18.688;2022-07-01T07:57:40;20.30;;;10.70;;
36923;SDS011;22841;50.252;18.688;2022-07-01T08:00:07;14.15;;;9.13;;
36923;SDS011;22841;50.252;18.688;2022-07-01T08:02:36;18.17;;;10.27;;
36923;SDS011;22841;50.252;18.688;2022-07-01T08:05:03;26.65;;;10.75;;
36923;SDS011;22841;50.252;18.688;2022-07-01T08:07:29;17.13;;;10.60;;
36923;SDS011;22841;50.252;18.688;2022-07-01T08:09:55;18.60;;;9.18;;
36923;SDS011;22841;50.252;18.688;2022-07-01T08:12:21;18.42;;;10.60;;
36923;SDS011;22841;50.252;18.688;2022-07-01T08:14:48;20.88;;;9.48;;
36923;SDS011;22841;50.252;18.688;2022-07-01T08:17:14;15.40;;;9.05;;
36923;SDS011;22841;50.252;18.688;2022-07-01T08:19:40;17.40;;;10.35;;
36923;SDS011;22841;50.252;18.688;2022-07-01T08:22:06;13.75;;;9.27;;
36923;SDS011;22841;50.252;18.688;2022-07-01T08:24:32;46.45;;;10.73;;
36923;SDS011;22841;50.252;18.688;2022-07-01T08:26:58;12.57;;;8.13;;
36923;SDS011;22841;50.252;18.688;2022-07-01T08:29:24;15.18;;;8.55;;
36923;SDS011;22841;50.252;18.688;2022-07-01T08:31:50;44.67;;;9.43;;
36923;SDS011;22841;50.252;18.688;2022-07-01T08:34:16;17.00;;;8.10;;
36923;SDS011;22841;50.252;18.688;2022-07-01T08:36:42;18.85;;;7.82;;
36923;SDS011;22841;50.252;18.688;2022-07-01T08:39:08;17.23;;;7.40;;
36923;SDS011;22841;50.252;18.688;2022-07-01T08:41:34;22.10;;;8.82;;
36923;SDS011;22841;50.252;18.688;2022-07-01T08:44:00;33.03;;;8.73;;
36923;SDS011;22841;50.252;18.688;2022-07-01T08:46:27;15.88;;;7.80;;
36923;SDS011;22841;50.252;18.688;2022-07-01T08:48:53;16.27;;;7.88;;
36923;SDS011;22841;50.252;18.688;2022-07-01T08:51:19;12.95;;;7.53;;
36923;SDS011;22841;50.252;18.688;2022-07-01T08:53:45;19.77;;;7.70;;
36923;SDS011;22841;50.252;18.688;2022-07-01T08:56:11;17.48;;;7.53;;
36923;SDS011;22841;50.252;18.688;2022-07-01T08:58:56;14.65;;;6.75;;
36923;SDS011;22841;50.252;18.688;2022-07-01T09:01:23;11.00;;;7.07;;
36923;SDS011;22841;50.252;18.688;2022-07-01T09:03:51;19.00;;;7.85;;
36923;SDS011;22841;50.252;18.688;2022-07-01T09:06:19;16.08;;;6.90;;
36923;SDS011;22841;50.252;18.688;2022-07-01T09:08:47;27.02;;;6.47;;
36923;SDS011;22841;50.252;18.688;2022-07-01T09:11:14;18.73;;;6.53;;
36923;SDS011;22841;50.252;18.688;2022-07-01T09:13:42;13.82;;;6.10;;
36923;SDS011;22841;50.252;18.688;2022-07-01T09:16:16;22.02;;;8.05;;
36923;SDS011;22841;50.252;18.688;2022-07-01T09:18:58;17.23;;;8.68;;
36923;SDS011;22841;50.252;18.688;2022-07-01T09:21:29;15.75;;;7.70;;
36923;SDS011;22841;50.252;18.688;2022-07-01T09:23:56;19.93;;;7.83;;
36923;SDS011;22841;50.252;18.688;2022-07-01T09:26:51;19.92;;;7.32;;
36923;SDS011;22841;50.252;18.688;2022-07-01T09:29:28;15.82;;;8.48;;
36923;SDS011;22841;50.252;18.688;2022-07-01T09:32:00;17.13;;;8.00;;
36923;SDS011;22841;50.252;18.688;2022-07-01T09:34:47;17.52;;;7.95;;
36923;SDS011;22841;50.252;18.688;2022-07-01T09:37:15;16.85;;;8.18;;
36923;SDS011;22841;50.252;18.688;2022-07-01T09:39:43;9.57;;;7.50;;
36923;SDS011;22841;50.252;18.688;2022-07-01T09:42:11;15.35;;;8.52;;
36923;SDS011;22841;50.252;18.688;2022-07-01T09:44:50;12.35;;;7.28;;
36923;SDS011;22841;50.252;18.688;2022-07-01T09:47:23;12.65;;;7.22;;
36923;SDS011;22841;50.252;18.688;2022-07-01T09:49:53;16.10;;;7.32;;
36923;SDS011;22841;50.252;18.688;2022-07-01T09:52:20;10.57;;;6.72;;
36923;SDS011;22841;50.252;18.688;2022-07-01T09:54:48;14.27;;;7.03;;
36923;SDS011;22841;50.252;18.688;2022-07-01T09:57:15;26.17;;;7.70;;
36923;SDS011;22841;50.252;18.688;2022-07-01T09:59:43;15.77;;;6.53;;
36923;SDS011;22841;50.252;18.688;2022-07-01T10:02:09;25.98;;;6.18;;
36923;SDS011;22841;50.252;18.688;2022-07-01T10:04:37;14.95;;;5.90;;
36923;SDS011;22841;50.252;18.688;2022-07-01T10:10:06;12.02;;;5.28;;
36923;SDS011;22841;50.252;18.688;2022-07-01T10:12:54;11.05;;;5.38;;
36923;SDS011;22841;50.252;18.688;2022-07-01T10:15:21;11.38;;;5.78;;
36923;SDS011;22841;50.252;18.688;2022-07-01T10:17:49;14.45;;;5.03;;
36923;SDS011;22841;50.252;18.688;2022-07-01T10:20:17;8.88;;;4.65;;
36923;SDS011;22841;50.252;18.688;2022-07-01T10:22:45;7.75;;;4.18;;
36923;SDS011;22841;50.252;18.688;2022-07-01T10:30:56;12.90;;;5.20;;
36923;SDS011;22841;50.252;18.688;2022-07-01T10:39:28;9.80;;;6.88;;
36923;SDS011;22841;50.252;18.688;2022-07-01T10:41:32;45.28;;;7.35;;
36923;SDS011;22841;50.252;18.688;2022-07-01T10:44:18;5.47;;;4.90;;
36923;SDS011;22841;50.252;18.688;2022-07-01T10:47:19;9.25;;;5.88;;
36923;SDS011;22841;50.252;18.688;2022-07-01T10:52:07;11.30;;;5.43;;
36923;SDS011;22841;50.252;18.688;2022-07-01T10:59:41;8.98;;;5.10;;
36923;SDS011;22841;50.252;18.688;2022-07-01T11:02:10;6.90;;;4.55;;
36923;SDS011;22841;50.252;18.688;2022-07-01T11:04:40;10.85;;;5.20;;
36923;SDS011;22841;50.252;18.688;2022-07-01T11:07:06;13.15;;;4.20;;
36923;SDS011;22841;50.252;18.688;2022-07-01T11:09:33;8.35;;;4.55;;
36923;SDS011;22841;50.252;18.688;2022-07-01T11:11:59;8.23;;;4.50;;
36923;SDS011;22841;50.252;18.688;2022-07-01T11:14:26;12.80;;;4.63;;
36923;SDS011;22841;50.252;18.688;2022-07-01T11:16:53;9.05;;;4.50;;
36923;SDS011;22841;50.252;18.688;2022-07-01T11:19:20;9.30;;;3.95;;
36923;SDS011;22841;50.252;18.688;2022-07-01T11:21:52;14.63;;;4.50;;
36923;SDS011;22841;50.252;18.688;2022-07-01T11:24:19;10.05;;;4.20;;
36923;SDS011;22841;50.252;18.688;2022-07-01T11:26:47;8.10;;;4.32;;
36923;SDS011;22841;50.252;18.688;2022-07-01T11:29:14;11.77;;;4.68;;
36923;SDS011;22841;50.252;18.688;2022-07-01T11:31:49;11.00;;;4.60;;
36923;SDS011;22841;50.252;18.688;2022-07-01T11:34:16;9.40;;;4.80;;
36923;SDS011;22841;50.252;18.688;2022-07-01T11:36:43;12.93;;;4.18;;
36923;SDS011;22841;50.252;18.688;2022-07-01T11:39:29;15.38;;;4.00;;
36923;SDS011;22841;50.252;18.688;2022-07-01T11:42:00;9.77;;;3.95;;
36923;SDS011;22841;50.252;18.688;2022-07-01T11:44:42;6.20;;;3.75;;
36923;SDS011;22841;50.252;18.688;2022-07-01T11:47:10;13.52;;;4.50;;
36923;SDS011;22841;50.252;18.688;2022-07-01T11:49:48;11.60;;;4.45;;
36923;SDS011;22841;50.252;18.688;2022-07-01T11:52:15;12.95;;;4.30;;
36923;SDS011;22841;50.252;18.688;2022-07-01T11:54:46;8.20;;;4.40;;
36923;SDS011;22841;50.252;18.688;2022-07-01T11:57:15;39.17;;;4.78;;
36923;SDS011;22841;50.252;18.688;2022-07-01T11:59:43;10.45;;;4.53;;
36923;SDS011;22841;50.252;18.688;2022-07-01T12:02:11;8.45;;;4.07;;
36923;SDS011;22841;50.252;18.688;2022-07-01T12:04:40;5.90;;;4.00;;
36923;SDS011;22841;50.252;18.688;2022-07-01T12:07:07;11.15;;;4.32;;
36923;SDS011;22841;50.252;18.688;2022-07-01T12:09:34;8.70;;;4.13;;
36923;SDS011;22841;50.252;18.688;2022-07-01T12:12:00;6.28;;;3.88;;
36923;SDS011;22841;50.252;18.688;2022-07-01T12:14:28;9.77;;;4.00;;
36923;SDS011;22841;50.252;18.688;2022-07-01T12:16:57;11.00;;;3.78;;
36923;SDS011;22841;50.252;18.688;2022-07-01T12:19:29;13.23;;;4.78;;
36923;SDS011;22841;50.252;18.688;2022-07-01T12:22:05;6.95;;;4.35;;
36923;SDS011;22841;50.252;18.688;2022-07-01T12:24:33;9.95;;;4.45;;
36923;SDS011;22841;50.252;18.688;2022-07-01T12:29:26;31.10;;;6.30;;
36923;SDS011;22841;50.252;18.688;2022-07-01T12:31:54;8.05;;;4.93;;
36923;SDS011;22841;50.252;18.688;2022-07-01T12:37:02;24.23;;;5.25;;
36923;SDS011;22841;50.252;18.688;2022-07-01T12:39:29;19.55;;;5.85;;
36923;SDS011;22841;50.252;18.688;2022-07-01T12:41:55;15.43;;;5.15;;
36923;SDS011;22841;50.252;18.688;2022-07-01T12:44:23;8.90;;;4.90;;
36923;SDS011;22841;50.252;18.688;2022-07-01T12:46:51;8.80;;;4.43;;
36923;SDS011;22841;50.252;18.688;2022-07-01T12:49:21;13.27;;;4.38;;
36923;SDS011;22841;50.252;18.688;2022-07-01T12:51:49;7.55;;;4.45;;
36923;SDS011;22841;50.252;18.688;2022-07-01T12:54:32;11.27;;;4.20;;
36923;SDS011;22841;50.252;18.688;2022-07-01T12:57:02;8.93;;;3.95;;
36923;SDS011;22841;50.252;18.688;2022-07-01T12:59:28;9.38;;;4.18;;
36923;SDS011;22841;50.252;18.688;2022-07-01T13:01:54;7.05;;;4.25;;
36923;SDS011;22841;50.252;18.688;2022-07-01T13:04:24;9.27;;;4.15;;
36923;SDS011;22841;50.252;18.688;2022-07-01T13:06:51;4.45;;;4.05;;
36923;SDS011;22841;50.252;18.688;2022-07-01T13:09:19;11.85;;;4.20;;
36923;SDS011;22841;50.252;18.688;2022-07-01T13:11:45;5.45;;;4.50;;
36923;SDS011;22841;50.252;18.688;2022-07-01T13:14:11;8.30;;;4.38;;
36923;SDS011;22841;50.252;18.688;2022-07-01T13:16:37;11.05;;;4.80;;
36923;SDS011;22841;50.252;18.688;2022-07-01T13:19:04;7.70;;;4.45;;
36923;SDS011;22841;50.252;18.688;2022-07-01T13:21:30;12.05;;;4.15;;
36923;SDS011;22841;50.252;18.688;2022-07-01T13:23:56;4.80;;;3.67;;
36923;SDS011;22841;50.252;18.688;2022-07-01T13:26:22;14.82;;;4.00;;
36923;SDS011;22841;50.252;18.688;2022-07-01T13:28:48;8.70;;;4.60;;
36923;SDS011;22841;50.252;18.688;2022-07-01T13:31:14;9.95;;;4.50;;
36923;SDS011;22841;50.252;18.688;2022-07-01T13:33:40;8.75;;;4.50;;
36923;SDS011;22841;50.252;18.688;2022-07-01T13:36:06;15.38;;;4.80;;
36923;SDS011;22841;50.252;18.688;2022-07-01T13:38:32;16.02;;;5.10;;
36923;SDS011;22841;50.252;18.688;2022-07-01T13:40:58;11.52;;;4.93;;
36923;SDS011;22841;50.252;18.688;2022-07-01T13:43:24;15.88;;;5.90;;
36923;SDS011;22841;50.252;18.688;2022-07-01T13:45:50;9.07;;;5.03;;
36923;SDS011;22841;50.252;18.688;2022-07-01T13:48:16;14.02;;;5.35;;
36923;SDS011;22841;50.252;18.688;2022-07-01T13:50:43;11.77;;;5.85;;
36923;SDS011;22841;50.252;18.688;2022-07-01T13:53:09;24.13;;;6.47;;
36923;SDS011;22841;50.252;18.688;2022-07-01T13:55:35;14.73;;;6.20;;
36923;SDS011;22841;50.252;18.688;2022-07-01T13:58:01;6.47;;;5.60;;
36923;SDS011;22841;50.252;18.688;2022-07-01T14:00:27;10.95;;;5.85;;
36923;SDS011;22841;50.252;18.688;2022-07-01T14:02:54;14.82;;;6.30;;
36923;SDS011;22841;50.252;18.688;2022-07-01T14:05:20;7.68;;;5.95;;
36923;SDS011;22841;50.252;18.688;2022-07-01T14:07:46;24.50;;;6.47;;
36923;SDS011;22841;50.252;18.688;2022-07-01T14:10:12;8.60;;;5.57;;
36923;SDS011;22841;50.252;18.688;2022-07-01T14:12:38;13.88;;;6.80;;
36923;SDS011;22841;50.252;18.688;2022-07-01T14:15:05;11.35;;;5.55;;
36923;SDS011;22841;50.252;18.688;2022-07-01T14:17:31;31.52;;;6.90;;
36923;SDS011;22841;50.252;18.688;2022-07-01T14:19:58;10.38;;;6.00;;
36923;SDS011;22841;50.252;18.688;2022-07-01T14:22:25;9.93;;;6.63;;
36923;SDS011;22841;50.252;18.688;2022-07-01T14:24:51;9.75;;;6.10;;
36923;SDS011;22841;50.252;18.688;2022-07-01T14:27:17;10.23;;;6.20;;
36923;SDS011;22841;50.252;18.688;2022-07-01T14:29:44;8.70;;;6.55;;
36923;SDS011;22841;50.252;18.688;2022-07-01T14:32:10;11.15;;;7.32;;
36923;SDS011;22841;50.252;18.688;2022-07-01T14:34:37;14.40;;;5.80;;
36923;SDS011;22841;50.252;18.688;2022-07-01T14:37:03;8.60;;;5.80;;
36923;SDS011;22841;50.252;18.688;2022-07-01T14:39:29;7.20;;;5.28;;
36923;SDS011;22841;50.252;18.688;2022-07-01T14:41:55;11.48;;;6.85;;
36923;SDS011;22841;50.252;18.688;2022-07-01T14:44:21;15.70;;;7.10;;
36923;SDS011;22841;50.252;18.688;2022-07-01T14:46:47;7.22;;;6.40;;
36923;SDS011;22841;50.252;18.688;2022-07-01T14:49:14;12.88;;;6.28;;